AirNav   Air Wisconsin Up To $57,000 Bonus
 
 571 users online  

2FL9 Heart of Florida Medical Center Heliport
Haines City, Florida, USA

GOING TO HAINES CITY?


FAA INFORMATION EFFECTIVE 02 JANUARY 2020

Location

FAA Identifier: 2FL9
Lat/Long: 28-10-47.0500N 081-38-20.2700W
28-10.784167N 081-38.337833W
28.1797361,-81.6389639
(estimated)
Elevation: 166 ft. / 51 m (estimated)
Variation: 04W (1995)
From city: 5 miles S of HAINES CITY, FL
Time zone: UTC -5 (UTC -4 during Daylight Saving Time)
Zip code: 33837

Heliport Operations

Heliport use: Private use. Permission required prior to landing
Activation date: 03/1999
Control tower: no
ARTCC: JACKSONVILLE CENTER
FSS: SAINT PETERSBURG FLIGHT SERVICE STATION
Attendance: UNATNDD
Wind indicator: yes
Segmented circle: no
Lights: FOR PERIMETER LGTS CALL 941-422-4971.

Heliport Communications

WX ASOS at GIF (9 nm SW): 133.675 (863-956-2097)
WX AWOS-3PT at ISM (13 nm NE): 128.775 (407-847-0533)
WX AWOS-3 at BOW (16 nm SW): 123.775 (863-533-9004)
WX AWOS-3 at X07 (17 nm S): 124.225 (863-678-1334)

Nearby radio navigation aids

VOR radial/distance  VOR name  Freq  Var
LALr059/23.0LAKELAND VORTAC116.0001E
ORLr216/27.1ORLANDO VORTAC112.2000E

Heliport Services

Runway Information

Helipad H1

Dimensions: 30 x 30 ft. / 9 x 9 m
Surface: concrete
Runway edge lights: PERI
Latitude: 28-10.887167N
Longitude: 081-38.566667W
Elevation: 166.0 ft.
Traffic pattern: leftleft

Heliport Ownership and Management from official FAA records

Ownership: Privately-owned
Owner: HEARTH OF FL RGNL MEDICAL CENTER
1615 US HIGHWAY 27
DAVENPORT, FL 33843
Phone 941-422-4971
EXT 4131.
Manager: MICHAEL JAMES
1615 US HIGHWAY 27 N
DAVENPORT, FL 33837
Phone 941-419-2292

Additional Remarks

FOR CD CTC ORLANDO APCH AT 407-852-7553.

Instrument Procedures

There are no published instrument procedures at 2FL9.

Some nearby airports with instrument procedures:

KGIF - Winter Haven Regional Airport (9 nm SW)
KISM - Kissimmee Gateway Airport (13 nm NE)
KBOW - Bartow Executive Airport (16 nm SW)
X07 - Lake Wales Municipal Airport (17 nm S)
KMCO - Orlando International Airport (23 nm NE)
 
Loc | Ops | Rwys | IFR | FBO | Links
Com | Nav | Svcs | Stats | Notes


 
Area around 2FL9 (Heart of Florida Medical Center Heliport)
 
Road maps at: MapQuest Bing Google
 
Aerial photo
WARNING: Photo may not be current or correct
Aerial photo of 2FL9 (Heart of Florida Medical Center Heliport)
Photo by Don F. Pease
Photo taken 19-Jan-2005

Do you have a better or more recent aerial photo of Heart of Florida Medical Center Heliport that you would like to share? If so, please send us your photo.

 
Sectional chart

 
Airport distance calculator
Flying to Heart of Florida Medical Center Heliport? Find the distance to fly.

From to 2FL9

Sunrise and sunset
Times for 21-Jan-2020
 Local
(UTC-5)
 Zulu
(UTC)
Morning civil twilight06:5411:54
Sunrise07:1912:19
Sunset17:5622:56
Evening civil twilight18:2223:22

Current date and time
Zulu (UTC)  21-Jan-2020 11:27:34
Local (UTC-5)  21-Jan-2020 06:27:34
 
METAR
KGIF 
9nm SW 
211053Z AUTO 33010KT 10SM CLR 06/02 A3020 RMK AO2 SLP224 T00560022
KISM 
13nm NE 
211056Z AUTO 34010KT 10SM CLR 07/03 A3019 RMK AO2 SLP224 T00670033 PNO $
KBOW 
16nm SW 
211115Z AUTO 33007KT 10SM OVC014 05/02 A3018 RMK AO2
KX07 
17nm S 
211115Z AUTO 35007KT 10SM SCT022 SCT028 06/03 A3020 RMK A01
TAF
KISM 
13nm NE 
210527Z 2106/2206 34006KT P6SM SKC FM211300 34011KT P6SM FEW030 FM211800 35014G20KT P6SM FEW040 FM220000 34014KT P6SM SKC
NOTAMs
Click for the latest NOTAMs
NOTAMs are issued by the DoD/FAA and will open in a separate window not controlled by AirNav.

 

 
 

Would you like to see your business listed on this page?

 If your business provides an interesting product or service to pilots, flight crews, aircraft, or users of the Heart of Florida Medical Center Heliport, you should consider listing it here.  To start the listing process, click on the button below
 
Add a business
 

Other Pages about Heart of Florida Medical Center Heliport

Update a link
 
Copyright © AirNav, LLC. All rights reserved. Privacy Policy  Contact